createdAt,value
2018-11-14T00:00:25.220Z,10.14
2018-11-14T00:05:27.424Z,10.16
2018-11-14T00:10:29.555Z,10.08
2018-11-14T00:15:31.675Z,10.19
2018-11-14T00:20:33.782Z,10.09
2018-11-14T00:25:35.943Z,10.01
2018-11-14T00:30:38.045Z,10.06
2018-11-14T00:35:40.241Z,9.96
2018-11-14T00:40:42.351Z,10.04
2018-11-14T00:45:44.496Z,10.13
2018-11-14T00:50:46.607Z,10.13
2018-11-14T00:55:48.759Z,10.08
2018-11-14T01:00:50.906Z,10.10
2018-11-14T01:05:53.052Z,10.12
2018-11-14T01:10:55.328Z,10.12
2018-11-14T01:15:57.427Z,10.07
2018-11-14T01:20:59.562Z,10.05
2018-11-14T01:26:01.698Z,10.12
2018-11-14T01:31:03.970Z,10.07
2018-11-14T01:36:06.086Z,10.09
2018-11-14T01:41:08.266Z,10.02
2018-11-14T01:46:10.315Z,10.31
2018-11-14T01:51:12.450Z,10.09
2018-11-14T01:56:14.568Z,9.94
2018-11-14T02:01:16.680Z,9.96
2018-11-14T02:06:18.825Z,9.89
2018-11-14T02:11:20.963Z,9.86
2018-11-14T02:16:23.098Z,9.83
2018-11-14T02:21:25.377Z,9.85
2018-11-14T02:26:27.515Z,9.80
2018-11-14T02:31:29.624Z,9.81
2018-11-14T02:36:31.798Z,9.73
2018-11-14T02:41:33.942Z,9.64
2018-11-14T02:46:36.067Z,9.75
2018-11-14T02:51:38.187Z,9.82
2018-11-14T02:56:40.300Z,9.79
2018-11-14T03:01:42.439Z,9.72
2018-11-14T03:06:44.575Z,9.89
2018-11-14T03:11:46.719Z,9.80
2018-11-14T03:16:48.977Z,9.79
2018-11-14T03:21:51.084Z,9.79
2018-11-14T03:26:53.195Z,9.80
2018-11-14T03:31:55.304Z,9.90
2018-11-14T03:36:57.680Z,9.83
2018-11-14T03:41:59.768Z,9.81
2018-11-14T03:47:01.906Z,9.84
2018-11-14T03:52:05.084Z,9.82
2018-11-14T03:57:07.194Z,9.69
2018-11-14T04:02:09.279Z,9.63
2018-11-14T04:07:11.456Z,9.74
2018-11-14T04:12:13.603Z,9.56
2018-11-14T04:17:15.704Z,9.38
2018-11-14T04:22:17.835Z,9.30
2018-11-14T04:27:19.947Z,9.29
2018-11-14T04:32:22.167Z,9.03
2018-11-14T04:37:24.281Z,9.05
2018-11-14T04:42:26.390Z,8.67
2018-11-14T04:47:28.485Z,8.69
2018-11-14T04:52:30.576Z,8.86
2018-11-14T04:57:32.696Z,8.91
2018-11-14T05:02:34.928Z,8.63
2018-11-14T05:07:37.276Z,8.58
2018-11-14T05:12:39.391Z,8.69
2018-11-14T05:17:41.844Z,8.64
2018-11-14T05:22:44.335Z,8.62
2018-11-14T05:27:46.474Z,8.60
2018-11-14T05:32:49.319Z,8.53
2018-11-14T05:37:51.434Z,8.27
2018-11-14T05:42:53.506Z,8.15
2018-11-14T05:47:55.596Z,8.42
2018-11-14T05:52:57.699Z,8.50
2018-11-14T05:57:59.827Z,8.38
2018-11-14T06:03:02.862Z,8.38
2018-11-14T06:08:05.047Z,8.16
2018-11-14T06:13:07.156Z,8.27
2018-11-14T06:18:09.261Z,8.17
2018-11-14T06:23:11.371Z,8.12
2018-11-14T06:28:13.488Z,8.29
2018-11-14T06:33:15.624Z,8.38
2018-11-14T06:38:17.750Z,8.32
2018-11-14T06:43:19.853Z,8.36
2018-11-14T06:48:21.987Z,8.36
2018-11-14T06:53:24.344Z,8.45
2018-11-14T06:58:26.470Z,8.37
2018-11-14T07:03:28.627Z,8.27
2018-11-14T07:08:30.785Z,8.07
2018-11-14T07:13:32.916Z,8.14
2018-11-14T07:18:35.005Z,8.23
2018-11-14T07:23:37.161Z,8.16
2018-11-14T07:28:39.265Z,8.23
2018-11-14T07:33:41.358Z,8.33
2018-11-14T07:38:46.317Z,8.36
2018-11-14T07:43:48.523Z,8.19
2018-11-14T07:48:51.066Z,8.08
2018-11-14T07:53:53.156Z,8.17
2018-11-14T07:58:55.270Z,8.22
2018-11-14T08:03:57.377Z,8.48
2018-11-14T08:08:59.508Z,8.51
2018-11-14T08:14:01.652Z,8.57
2018-11-14T08:19:04.404Z,8.73
2018-11-14T08:24:06.451Z,8.74
2018-11-14T08:29:08.570Z,8.86
2018-11-14T08:34:10.687Z,8.95
2018-11-14T08:39:12.882Z,8.92
2018-11-14T08:44:14.956Z,8.88
2018-11-14T08:49:17.109Z,8.79
2018-11-14T08:54:19.212Z,8.67
2018-11-14T08:59:21.357Z,8.84
2018-11-14T09:04:23.434Z,8.65
2018-11-14T09:09:25.587Z,8.63
2018-11-14T09:14:27.782Z,8.66
2018-11-14T09:19:29.852Z,8.48
2018-11-14T09:24:31.984Z,8.26
2018-11-14T09:29:34.109Z,8.32
2018-11-14T09:34:36.265Z,8.45
2018-11-14T09:39:38.377Z,8.36
2018-11-14T09:44:40.489Z,8.53
2018-11-14T09:49:42.635Z,8.68
2018-11-14T09:54:44.759Z,8.79
2018-11-14T09:59:46.916Z,8.66
2018-11-14T10:04:49.039Z,8.67
2018-11-14T10:09:51.207Z,8.65
2018-11-14T10:14:53.322Z,8.67
2018-11-14T10:19:55.456Z,8.47
2018-11-14T10:24:57.614Z,8.50
2018-11-14T10:29:59.797Z,8.52
2018-11-14T10:35:01.920Z,8.43
2018-11-14T10:40:05.307Z,8.47
2018-11-14T10:45:08.758Z,8.69
2018-11-14T10:50:14.345Z,8.76
2018-11-14T10:55:17.000Z,8.85
2018-11-14T11:00:27.663Z,8.74
2018-11-14T11:05:35.632Z,8.61
2018-11-14T11:10:43.435Z,8.62
2018-11-14T11:15:51.366Z,8.60
2018-11-14T11:20:53.506Z,8.67
2018-11-14T11:25:55.631Z,8.74
2018-11-14T11:30:57.787Z,8.75
2018-11-14T11:35:59.948Z,8.70
2018-11-14T11:41:02.072Z,8.96
2018-11-14T11:46:04.333Z,8.89
2018-11-14T11:51:06.579Z,8.94
2018-11-14T11:56:08.636Z,8.85
2018-11-14T12:01:11.023Z,9.02
2018-11-14T12:06:13.311Z,9.05
2018-11-14T12:11:15.348Z,9.08
2018-11-14T12:16:17.524Z,9.03
2018-11-14T12:21:19.636Z,9.01
2018-11-14T12:26:21.772Z,9.15
2018-11-14T12:31:23.915Z,9.08
2018-11-14T12:36:26.016Z,9.03
2018-11-14T12:41:28.168Z,9.13
2018-11-14T12:46:30.312Z,9.13
2018-11-14T12:51:32.474Z,9.20
2018-11-14T12:56:34.649Z,9.45
2018-11-14T13:01:36.766Z,9.40
2018-11-14T13:06:38.896Z,9.26
2018-11-14T13:11:41.035Z,9.20
2018-11-14T13:16:43.175Z,9.32
2018-11-14T13:21:45.307Z,9.28
2018-11-14T13:26:47.453Z,9.26
2018-11-14T13:31:49.599Z,9.35
2018-11-14T13:36:51.746Z,9.44
2018-11-14T13:41:53.903Z,9.42
2018-11-14T13:46:56.080Z,9.45
2018-11-14T13:51:58.195Z,9.41
2018-11-14T13:57:00.396Z,9.48
2018-11-14T14:02:02.526Z,9.66
2018-11-14T14:07:04.762Z,9.63
2018-11-14T14:12:06.918Z,9.56
2018-11-14T14:17:09.090Z,9.48
2018-11-14T14:22:11.296Z,9.50
2018-11-14T14:27:13.396Z,9.40
2018-11-14T14:32:15.578Z,9.42
2018-11-14T14:37:17.728Z,9.33
2018-11-14T14:42:19.899Z,9.49
2018-11-14T14:47:23.122Z,9.38
2018-11-14T14:52:25.355Z,9.33
2018-11-14T14:57:27.495Z,9.31
2018-11-14T15:02:36.375Z,9.38
2018-11-14T15:07:38.768Z,9.37
2018-11-14T15:12:41.265Z,9.34
2018-11-14T15:17:43.644Z,9.28
2018-11-14T15:22:45.846Z,9.27
2018-11-14T15:27:48.430Z,9.30
2018-11-14T15:32:50.591Z,9.34
2018-11-14T15:37:52.772Z,9.40
2018-11-14T15:42:55.008Z,9.32
2018-11-14T15:47:57.121Z,9.32
2018-11-14T15:52:59.413Z,9.35
2018-11-14T15:58:01.640Z,9.39
2018-11-14T16:03:03.842Z,9.41
2018-11-14T16:08:05.969Z,9.35
2018-11-14T16:13:08.171Z,9.30
2018-11-14T16:18:10.417Z,9.82
2018-11-14T16:23:12.563Z,9.40
2018-11-14T16:28:14.692Z,9.34
2018-11-14T16:33:16.831Z,9.30
2018-11-14T16:38:19.203Z,9.30
2018-11-14T16:43:21.200Z,9.27
2018-11-14T16:48:23.355Z,9.31
2018-11-14T16:53:25.487Z,9.40
2018-11-14T16:58:27.633Z,9.78
2018-11-14T17:03:29.792Z,9.36
2018-11-14T17:08:31.927Z,9.44
2018-11-14T17:13:34.114Z,9.57
2018-11-14T17:18:36.272Z,9.56
2018-11-14T17:23:38.437Z,9.52
2018-11-14T17:28:40.624Z,9.34
2018-11-14T17:33:42.781Z,9.40
2018-11-14T17:38:44.974Z,9.37
2018-11-14T17:43:47.246Z,9.45
2018-11-14T17:48:49.434Z,9.48
2018-11-14T17:53:51.652Z,9.32
2018-11-14T17:58:53.811Z,9.36
2018-11-14T18:03:56.020Z,9.38
2018-11-14T18:08:58.190Z,9.37
2018-11-14T18:14:00.413Z,9.50
2018-11-14T18:19:02.592Z,9.62
2018-11-14T18:24:05.073Z,9.47
2018-11-14T18:29:07.249Z,9.49
2018-11-14T18:34:09.501Z,9.64
2018-11-14T18:39:13.287Z,9.55
2018-11-14T18:44:15.524Z,9.57
2018-11-14T18:49:17.716Z,9.58
2018-11-14T18:54:19.908Z,9.62
2018-11-14T18:59:22.120Z,9.56
2018-11-14T19:04:24.337Z,9.61
2018-11-14T19:09:26.525Z,9.64
2018-11-14T19:14:28.766Z,9.68
2018-11-14T19:19:31.421Z,9.69
2018-11-14T19:24:33.977Z,9.79
2018-11-14T19:29:36.888Z,9.59
2018-11-14T19:34:39.760Z,9.66
2018-11-14T19:39:44.723Z,9.79
2018-11-14T19:44:49.210Z,9.62
2018-11-14T19:49:52.252Z,9.60
2018-11-14T19:54:56.224Z,9.58
2018-11-14T20:00:16.815Z,9.64
2018-11-14T20:05:21.537Z,9.54
2018-11-14T20:10:27.593Z,9.54
2018-11-14T20:15:32.636Z,9.72
2018-11-14T20:20:39.226Z,9.61
2018-11-14T20:25:43.524Z,9.67
2018-11-14T20:30:47.357Z,9.63
2018-11-14T20:35:50.386Z,9.61
2018-11-14T20:40:53.455Z,9.54
2018-11-14T20:45:56.821Z,9.61
2018-11-14T20:51:01.710Z,9.62
2018-11-14T20:56:05.139Z,9.65
2018-11-14T21:01:07.759Z,9.54
2018-11-14T21:06:10.658Z,9.56
2018-11-14T21:11:12.940Z,9.65
2018-11-14T21:16:15.613Z,9.65
2018-11-14T21:21:18.229Z,9.59
2018-11-14T21:26:20.426Z,9.61
2018-11-14T21:31:22.637Z,9.64
2018-11-14T21:36:24.908Z,9.44
2018-11-14T21:41:27.096Z,9.47
2018-11-14T21:46:29.225Z,9.42
2018-11-14T21:51:31.361Z,9.42
2018-11-14T21:56:33.551Z,9.37
2018-11-14T22:01:35.748Z,9.44
2018-11-14T22:06:37.907Z,9.42
2018-11-14T22:11:40.112Z,9.38
2018-11-14T22:16:42.289Z,9.40
2018-11-14T22:21:44.440Z,9.29
2018-11-14T22:26:46.610Z,9.38
2018-11-14T22:31:48.739Z,9.31
2018-11-14T22:36:50.921Z,9.18
2018-11-14T22:41:53.052Z,9.32
2018-11-14T22:46:55.325Z,9.33
2018-11-14T22:51:57.499Z,9.28
2018-11-14T22:56:59.644Z,9.27
2018-11-14T23:02:01.825Z,9.40
2018-11-14T23:07:03.987Z,9.25
2018-11-14T23:12:06.107Z,9.42
2018-11-14T23:17:08.218Z,9.39
2018-11-14T23:22:10.315Z,9.52
2018-11-14T23:27:12.425Z,9.55
2018-11-14T23:32:14.497Z,9.60
2018-11-14T23:37:16.703Z,9.60
2018-11-14T23:42:18.768Z,9.65
2018-11-14T23:47:20.938Z,9.56
2018-11-14T23:52:23.008Z,9.60
2018-11-14T23:57:25.069Z,9.49
